sensor_id;sensor_type;location;lat;lon;timestamp;temperature;humidity
54684;DHT22;40582;53.100;6.686;2023-11-21T00:00:19;9.00;99.90
54684;DHT22;40582;53.100;6.686;2023-11-21T00:02:45;8.90;99.90
54684;DHT22;40582;53.100;6.686;2023-11-21T00:05:12;8.90;99.90
54684;DHT22;40582;53.100;6.686;2023-11-21T00:07:40;8.70;99.90
54684;DHT22;40582;53.100;6.686;2023-11-21T00:10:07;8.70;99.90
54684;DHT22;40582;53.100;6.686;2023-11-21T00:12:36;8.70;99.90
54684;DHT22;40582;53.100;6.686;2023-11-21T00:15:02;8.60;99.90
54684;DHT22;40582;53.100;6.686;2023-11-21T00:17:28;8.50;99.90
54684;DHT22;40582;53.100;6.686;2023-11-21T00:19:54;8.50;99.90
54684;DHT22;40582;53.100;6.686;2023-11-21T00:22:20;8.50;99.90
54684;DHT22;40582;53.100;6.686;2023-11-21T00:24:46;8.50;99.90
54684;DHT22;40582;53.100;6.686;2023-11-21T00:27:13;8.50;99.90
54684;DHT22;40582;53.100;6.686;2023-11-21T00:29:39;8.50;99.90
54684;DHT22;40582;53.100;6.686;2023-11-21T00:32:06;8.50;99.90
54684;DHT22;40582;53.100;6.686;2023-11-21T00:34:32;8.50;99.90
54684;DHT22;40582;53.100;6.686;2023-11-21T00:36:58;8.60;99.90
54684;DHT22;40582;53.100;6.686;2023-11-21T00:39:25;8.60;99.90
54684;DHT22;40582;53.100;6.686;2023-11-21T00:41:52;8.60;99.90
54684;DHT22;40582;53.100;6.686;2023-11-21T00:44:18;8.50;99.90
54684;DHT22;40582;53.100;6.686;2023-11-21T00:46:44;8.50;99.90
54684;DHT22;40582;53.100;6.686;2023-11-21T00:49:10;8.40;99.90
54684;DHT22;40582;53.100;6.686;2023-11-21T00:51:35;8.50;99.90
54684;DHT22;40582;53.100;6.686;2023-11-21T00:54:01;8.50;99.90
54684;DHT22;40582;53.100;6.686;2023-11-21T00:56:27;8.50;99.90
54684;DHT22;40582;53.100;6.686;2023-11-21T00:58:53;8.50;99.90
54684;DHT22;40582;53.100;6.686;2023-11-21T01:01:20;8.60;99.90
54684;DHT22;40582;53.100;6.686;2023-11-21T01:03:46;8.70;99.90
54684;DHT22;40582;53.100;6.686;2023-11-21T01:06:12;8.70;99.90
54684;DHT22;40582;53.100;6.686;2023-11-21T01:15:59;8.90;99.90
54684;DHT22;40582;53.100;6.686;2023-11-21T01:18:24;8.90;99.90
54684;DHT22;40582;53.100;6.686;2023-11-21T01:20:54;8.90;99.90
54684;DHT22;40582;53.100;6.686;2023-11-21T01:23:20;9.00;99.90
54684;DHT22;40582;53.100;6.686;2023-11-21T01:25:46;9.00;99.90
54684;DHT22;40582;53.100;6.686;2023-11-21T01:28:12;9.10;99.90
54684;DHT22;40582;53.100;6.686;2023-11-21T01:30:37;9.10;99.90
54684;DHT22;40582;53.100;6.686;2023-11-21T01:33:03;9.10;99.90
54684;DHT22;40582;53.100;6.686;2023-11-21T01:35:29;9.00;99.90
54684;DHT22;40582;53.100;6.686;2023-11-21T01:37:55;9.10;99.90
54684;DHT22;40582;53.100;6.686;2023-11-21T01:40:21;9.10;99.90
54684;DHT22;40582;53.100;6.686;2023-11-21T01:42:47;9.10;99.90
54684;DHT22;40582;53.100;6.686;2023-11-21T01:45:13;9.10;99.90
54684;DHT22;40582;53.100;6.686;2023-11-21T01:47:41;9.10;99.90
54684;DHT22;40582;53.100;6.686;2023-11-21T01:50:08;9.20;99.90
54684;DHT22;40582;53.100;6.686;2023-11-21T01:52:38;9.20;99.90
54684;DHT22;40582;53.100;6.686;2023-11-21T01:55:07;9.10;99.90
54684;DHT22;40582;53.100;6.686;2023-11-21T01:57:35;9.20;99.90
54684;DHT22;40582;53.100;6.686;2023-11-21T02:00:02;9.20;99.90
54684;DHT22;40582;53.100;6.686;2023-11-21T02:02:44;9.20;99.90
54684;DHT22;40582;53.100;6.686;2023-11-21T02:05:11;9.20;99.90
54684;DHT22;40582;53.100;6.686;2023-11-21T02:07:39;9.10;99.90
54684;DHT22;40582;53.100;6.686;2023-11-21T02:10:06;9.20;99.90
54684;DHT22;40582;53.100;6.686;2023-11-21T02:12:33;9.20;99.90
54684;DHT22;40582;53.100;6.686;2023-11-21T02:14:58;9.20;99.90
54684;DHT22;40582;53.100;6.686;2023-11-21T02:17:24;9.20;99.90
54684;DHT22;40582;53.100;6.686;2023-11-21T02:19:50;9.20;99.90
54684;DHT22;40582;53.100;6.686;2023-11-21T02:22:18;9.20;99.90
54684;DHT22;40582;53.100;6.686;2023-11-21T02:24:46;9.20;99.90
54684;DHT22;40582;53.100;6.686;2023-11-21T02:27:13;9.20;99.90
54684;DHT22;40582;53.100;6.686;2023-11-21T02:29:39;9.20;99.90
54684;DHT22;40582;53.100;6.686;2023-11-21T02:32:04;9.30;99.90
54684;DHT22;40582;53.100;6.686;2023-11-21T02:34:31;9.20;99.90
54684;DHT22;40582;53.100;6.686;2023-11-21T02:36:56;9.20;99.90
54684;DHT22;40582;53.100;6.686;2023-11-21T02:39:23;9.20;99.90
54684;DHT22;40582;53.100;6.686;2023-11-21T02:41:49;9.20;99.90
54684;DHT22;40582;53.100;6.686;2023-11-21T02:44:15;9.30;99.90
54684;DHT22;40582;53.100;6.686;2023-11-21T02:46:41;9.30;99.90
54684;DHT22;40582;53.100;6.686;2023-11-21T02:49:07;9.30;99.90
54684;DHT22;40582;53.100;6.686;2023-11-21T02:51:36;9.30;99.90
54684;DHT22;40582;53.100;6.686;2023-11-21T02:54:03;9.30;99.90
54684;DHT22;40582;53.100;6.686;2023-11-21T02:56:32;9.30;99.90
54684;DHT22;40582;53.100;6.686;2023-11-21T02:58:59;9.30;99.90
54684;DHT22;40582;53.100;6.686;2023-11-21T03:01:26;9.30;99.90
54684;DHT22;40582;53.100;6.686;2023-11-21T03:03:52;9.30;99.90
54684;DHT22;40582;53.100;6.686;2023-11-21T03:06:19;9.20;99.90
54684;DHT22;40582;53.100;6.686;2023-11-21T03:08:45;9.20;99.90
54684;DHT22;40582;53.100;6.686;2023-11-21T03:11:11;9.20;99.90
54684;DHT22;40582;53.100;6.686;2023-11-21T03:13:39;9.20;99.90
54684;DHT22;40582;53.100;6.686;2023-11-21T03:16:09;9.20;99.90
54684;DHT22;40582;53.100;6.686;2023-11-21T03:18:39;9.20;99.90
54684;DHT22;40582;53.100;6.686;2023-11-21T03:21:05;9.10;99.90
54684;DHT22;40582;53.100;6.686;2023-11-21T03:23:31;9.20;99.90
54684;DHT22;40582;53.100;6.686;2023-11-21T03:25:57;9.20;99.90
54684;DHT22;40582;53.100;6.686;2023-11-21T03:28:25;9.20;99.90
54684;DHT22;40582;53.100;6.686;2023-11-21T03:30:52;9.20;99.90
54684;DHT22;40582;53.100;6.686;2023-11-21T03:33:17;9.20;99.90
54684;DHT22;40582;53.100;6.686;2023-11-21T03:35:43;9.20;99.90
54684;DHT22;40582;53.100;6.686;2023-11-21T03:38:10;9.20;99.90
54684;DHT22;40582;53.100;6.686;2023-11-21T03:40:36;9.20;99.90
54684;DHT22;40582;53.100;6.686;2023-11-21T03:43:01;9.20;99.90
54684;DHT22;40582;53.100;6.686;2023-11-21T03:45:27;9.20;99.90
54684;DHT22;40582;53.100;6.686;2023-11-21T03:47:53;9.10;99.90
54684;DHT22;40582;53.100;6.686;2023-11-21T03:50:18;9.10;99.90
54684;DHT22;40582;53.100;6.686;2023-11-21T03:52:44;9.10;99.90
54684;DHT22;40582;53.100;6.686;2023-11-21T03:55:10;9.20;99.90
54684;DHT22;40582;53.100;6.686;2023-11-21T03:57:36;9.20;99.90
54684;DHT22;40582;53.100;6.686;2023-11-21T04:00:03;9.20;99.90
54684;DHT22;40582;53.100;6.686;2023-11-21T04:02:29;9.20;99.90
54684;DHT22;40582;53.100;6.686;2023-11-21T04:04:57;9.20;99.90
54684;DHT22;40582;53.100;6.686;2023-11-21T04:07:23;9.20;99.90
54684;DHT22;40582;53.100;6.686;2023-11-21T04:09:48;9.20;99.90
54684;DHT22;40582;53.100;6.686;2023-11-21T04:12:14;9.10;99.90
54684;DHT22;40582;53.100;6.686;2023-11-21T04:14:40;9.10;99.90
54684;DHT22;40582;53.100;6.686;2023-11-21T04:17:06;9.10;99.90
54684;DHT22;40582;53.100;6.686;2023-11-21T04:19:31;9.10;99.90
54684;DHT22;40582;53.100;6.686;2023-11-21T04:21:57;9.20;99.90
54684;DHT22;40582;53.100;6.686;2023-11-21T04:24:23;9.20;99.90
54684;DHT22;40582;53.100;6.686;2023-11-21T04:26:48;9.20;99.90
54684;DHT22;40582;53.100;6.686;2023-11-21T04:29:14;9.20;99.90
54684;DHT22;40582;53.100;6.686;2023-11-21T04:31:40;9.20;99.90
54684;DHT22;40582;53.100;6.686;2023-11-21T04:34:06;9.20;99.90
54684;DHT22;40582;53.100;6.686;2023-11-21T04:36:33;9.10;99.90
54684;DHT22;40582;53.100;6.686;2023-11-21T04:39:00;9.10;99.90
54684;DHT22;40582;53.100;6.686;2023-11-21T04:41:26;9.10;99.90
54684;DHT22;40582;53.100;6.686;2023-11-21T04:43:51;9.10;99.90
54684;DHT22;40582;53.100;6.686;2023-11-21T04:46:17;9.10;99.90
54684;DHT22;40582;53.100;6.686;2023-11-21T04:48:43;9.10;99.90
54684;DHT22;40582;53.100;6.686;2023-11-21T04:51:09;9.00;99.90
54684;DHT22;40582;53.100;6.686;2023-11-21T04:53:37;9.10;99.90
54684;DHT22;40582;53.100;6.686;2023-11-21T04:56:03;9.10;99.90
54684;DHT22;40582;53.100;6.686;2023-11-21T04:58:28;9.10;99.90
54684;DHT22;40582;53.100;6.686;2023-11-21T05:00:54;9.10;99.90
54684;DHT22;40582;53.100;6.686;2023-11-21T05:03:20;9.10;99.90
54684;DHT22;40582;53.100;6.686;2023-11-21T05:05:46;9.10;99.90
54684;DHT22;40582;53.100;6.686;2023-11-21T05:08:11;9.10;99.90
54684;DHT22;40582;53.100;6.686;2023-11-21T05:10:37;9.10;99.90
54684;DHT22;40582;53.100;6.686;2023-11-21T05:13:04;9.10;99.90
54684;DHT22;40582;53.100;6.686;2023-11-21T05:15:35;9.10;99.90
54684;DHT22;40582;53.100;6.686;2023-11-21T05:18:00;9.10;99.90
54684;DHT22;40582;53.100;6.686;2023-11-21T05:20:26;9.10;99.90
54684;DHT22;40582;53.100;6.686;2023-11-21T05:22:52;9.10;99.90
54684;DHT22;40582;53.100;6.686;2023-11-21T05:25:18;9.20;99.90
54684;DHT22;40582;53.100;6.686;2023-11-21T05:27:47;9.20;99.90
54684;DHT22;40582;53.100;6.686;2023-11-21T05:30:13;9.20;99.90
54684;DHT22;40582;53.100;6.686;2023-11-21T05:32:40;9.20;99.90
54684;DHT22;40582;53.100;6.686;2023-11-21T05:35:08;9.10;99.90
54684;DHT22;40582;53.100;6.686;2023-11-21T05:37:43;9.20;99.90
54684;DHT22;40582;53.100;6.686;2023-11-21T05:40:09;9.10;99.90
54684;DHT22;40582;53.100;6.686;2023-11-21T05:42:35;9.20;99.90
54684;DHT22;40582;53.100;6.686;2023-11-21T05:45:02;9.20;99.90
54684;DHT22;40582;53.100;6.686;2023-11-21T05:47:41;9.20;99.90
54684;DHT22;40582;53.100;6.686;2023-11-21T05:50:12;9.20;99.90
54684;DHT22;40582;53.100;6.686;2023-11-21T05:52:41;9.10;99.90
54684;DHT22;40582;53.100;6.686;2023-11-21T05:55:07;9.10;99.90
54684;DHT22;40582;53.100;6.686;2023-11-21T05:57:40;9.10;99.90
54684;DHT22;40582;53.100;6.686;2023-11-21T06:00:08;9.10;99.90
54684;DHT22;40582;53.100;6.686;2023-11-21T06:02:40;9.10;99.90
54684;DHT22;40582;53.100;6.686;2023-11-21T06:05:07;9.10;99.90
54684;DHT22;40582;53.100;6.686;2023-11-21T06:07:33;9.10;99.90
54684;DHT22;40582;53.100;6.686;2023-11-21T06:09:59;9.10;99.90
54684;DHT22;40582;53.100;6.686;2023-11-21T06:12:24;9.10;99.90
54684;DHT22;40582;53.100;6.686;2023-11-21T06:14:50;9.10;99.90
54684;DHT22;40582;53.100;6.686;2023-11-21T06:17:16;9.10;99.90
54684;DHT22;40582;53.100;6.686;2023-11-21T06:19:44;9.10;99.90
54684;DHT22;40582;53.100;6.686;2023-11-21T06:22:11;9.10;99.90
54684;DHT22;40582;53.100;6.686;2023-11-21T06:24:37;9.10;99.90
54684;DHT22;40582;53.100;6.686;2023-11-21T06:27:05;9.10;99.90
54684;DHT22;40582;53.100;6.686;2023-11-21T06:29:31;9.10;99.90
54684;DHT22;40582;53.100;6.686;2023-11-21T06:31:57;9.10;99.90
54684;DHT22;40582;53.100;6.686;2023-11-21T06:34:24;9.10;99.90
54684;DHT22;40582;53.100;6.686;2023-11-21T06:36:49;9.10;99.90
54684;DHT22;40582;53.100;6.686;2023-11-21T06:39:15;9.10;99.90
54684;DHT22;40582;53.100;6.686;2023-11-21T06:41:42;9.10;99.90
54684;DHT22;40582;53.100;6.686;2023-11-21T06:44:08;9.10;99.90
54684;DHT22;40582;53.100;6.686;2023-11-21T06:46:34;9.10;99.90
54684;DHT22;40582;53.100;6.686;2023-11-21T06:49:00;9.10;99.90
54684;DHT22;40582;53.100;6.686;2023-11-21T06:51:25;9.10;99.90
54684;DHT22;40582;53.100;6.686;2023-11-21T06:53:51;9.00;99.90
54684;DHT22;40582;53.100;6.686;2023-11-21T06:56:18;9.00;99.90
54684;DHT22;40582;53.100;6.686;2023-11-21T06:58:46;9.00;99.90
54684;DHT22;40582;53.100;6.686;2023-11-21T07:01:13;9.00;99.90
54684;DHT22;40582;53.100;6.686;2023-11-21T07:03:39;9.00;99.90
54684;DHT22;40582;53.100;6.686;2023-11-21T07:06:05;9.00;99.90
54684;DHT22;40582;53.100;6.686;2023-11-21T07:08:31;9.00;99.90
54684;DHT22;40582;53.100;6.686;2023-11-21T07:10:56;8.90;99.90
54684;DHT22;40582;53.100;6.686;2023-11-21T07:13:22;9.00;99.90
54684;DHT22;40582;53.100;6.686;2023-11-21T07:15:49;8.90;99.90
54684;DHT22;40582;53.100;6.686;2023-11-21T07:18:14;8.90;99.90
54684;DHT22;40582;53.100;6.686;2023-11-21T07:20:40;8.90;99.90
54684;DHT22;40582;53.100;6.686;2023-11-21T07:23:06;8.90;99.90
54684;DHT22;40582;53.100;6.686;2023-11-21T07:25:32;8.90;99.90
54684;DHT22;40582;53.100;6.686;2023-11-21T07:27:59;8.90;99.90
54684;DHT22;40582;53.100;6.686;2023-11-21T07:30:26;8.90;99.90
54684;DHT22;40582;53.100;6.686;2023-11-21T07:32:52;8.90;99.90
54684;DHT22;40582;53.100;6.686;2023-11-21T07:35:18;8.90;99.90
54684;DHT22;40582;53.100;6.686;2023-11-21T07:37:43;8.90;99.90
54684;DHT22;40582;53.100;6.686;2023-11-21T07:40:09;8.90;99.90
54684;DHT22;40582;53.100;6.686;2023-11-21T07:42:37;8.90;99.90
54684;DHT22;40582;53.100;6.686;2023-11-21T07:45:04;8.90;99.90
54684;DHT22;40582;53.100;6.686;2023-11-21T07:47:30;8.80;99.90
54684;DHT22;40582;53.100;6.686;2023-11-21T07:49:55;8.80;99.90
54684;DHT22;40582;53.100;6.686;2023-11-21T07:52:22;8.80;99.90
54684;DHT22;40582;53.100;6.686;2023-11-21T07:54:48;8.80;99.90
54684;DHT22;40582;53.100;6.686;2023-11-21T07:57:13;8.70;99.90
54684;DHT22;40582;53.100;6.686;2023-11-21T07:59:44;8.70;99.90
54684;DHT22;40582;53.100;6.686;2023-11-21T08:02:16;8.70;99.90
54684;DHT22;40582;53.100;6.686;2023-11-21T08:04:43;8.80;99.90
54684;DHT22;40582;53.100;6.686;2023-11-21T08:07:08;8.70;99.90
54684;DHT22;40582;53.100;6.686;2023-11-21T08:09:35;8.70;99.90
54684;DHT22;40582;53.100;6.686;2023-11-21T08:12:00;8.70;99.90
54684;DHT22;40582;53.100;6.686;2023-11-21T08:14:28;8.70;99.90
54684;DHT22;40582;53.100;6.686;2023-11-21T08:16:53;8.70;99.90
54684;DHT22;40582;53.100;6.686;2023-11-21T08:19:23;8.70;99.90
54684;DHT22;40582;53.100;6.686;2023-11-21T08:21:51;8.70;99.90
54684;DHT22;40582;53.100;6.686;2023-11-21T08:24:20;8.80;99.90
54684;DHT22;40582;53.100;6.686;2023-11-21T08:26:46;8.80;99.90
54684;DHT22;40582;53.100;6.686;2023-11-21T08:29:11;8.90;99.90
54684;DHT22;40582;53.100;6.686;2023-11-21T08:31:37;8.90;99.90
54684;DHT22;40582;53.100;6.686;2023-11-21T08:34:03;8.90;99.90
54684;DHT22;40582;53.100;6.686;2023-11-21T08:36:29;8.90;99.90
54684;DHT22;40582;53.100;6.686;2023-11-21T08:38:57;8.90;99.90
54684;DHT22;40582;53.100;6.686;2023-11-21T08:41:23;8.90;99.90
54684;DHT22;40582;53.100;6.686;2023-11-21T08:43:50;8.90;99.90
54684;DHT22;40582;53.100;6.686;2023-11-21T08:46:18;8.80;99.90
54684;DHT22;40582;53.100;6.686;2023-11-21T08:48:44;8.90;99.90
54684;DHT22;40582;53.100;6.686;2023-11-21T08:51:12;8.80;99.90
54684;DHT22;40582;53.100;6.686;2023-11-21T08:53:39;8.80;99.90
54684;DHT22;40582;53.100;6.686;2023-11-21T08:56:05;8.70;99.90
54684;DHT22;40582;53.100;6.686;2023-11-21T08:58:31;8.70;99.90
54684;DHT22;40582;53.100;6.686;2023-11-21T09:00:58;8.70;99.90
54684;DHT22;40582;53.100;6.686;2023-11-21T09:03:23;8.70;99.90
54684;DHT22;40582;53.100;6.686;2023-11-21T09:05:52;8.70;99.90
54684;DHT22;40582;53.100;6.686;2023-11-21T09:08:18;9.60;99.90
54684;DHT22;40582;53.100;6.686;2023-11-21T09:10:44;8.70;99.90
54684;DHT22;40582;53.100;6.686;2023-11-21T09:13:13;8.70;99.90
54684;DHT22;40582;53.100;6.686;2023-11-21T09:15:38;8.70;99.90
54684;DHT22;40582;53.100;6.686;2023-11-21T09:18:05;8.70;99.90
54684;DHT22;40582;53.100;6.686;2023-11-21T09:20:30;8.70;99.90
54684;DHT22;40582;53.100;6.686;2023-11-21T09:22:56;8.70;99.90
54684;DHT22;40582;53.100;6.686;2023-11-21T09:25:22;8.70;99.90
54684;DHT22;40582;53.100;6.686;2023-11-21T09:27:48;8.70;99.90
54684;DHT22;40582;53.100;6.686;2023-11-21T09:30:13;8.70;99.90
54684;DHT22;40582;53.100;6.686;2023-11-21T09:32:42;8.70;99.90
54684;DHT22;40582;53.100;6.686;2023-11-21T09:35:11;8.70;99.90
54684;DHT22;40582;53.100;6.686;2023-11-21T09:37:37;8.70;99.90
54684;DHT22;40582;53.100;6.686;2023-11-21T09:40:04;8.70;99.90
54684;DHT22;40582;53.100;6.686;2023-11-21T09:42:37;8.70;99.90
54684;DHT22;40582;53.100;6.686;2023-11-21T09:45:46;8.70;99.90
54684;DHT22;40582;53.100;6.686;2023-11-21T09:47:57;8.80;99.90
54684;DHT22;40582;53.100;6.686;2023-11-21T09:50:24;8.80;99.90
54684;DHT22;40582;53.100;6.686;2023-11-21T09:55:27;8.90;99.90
54684;DHT22;40582;53.100;6.686;2023-11-21T09:57:57;8.80;99.90
54684;DHT22;40582;53.100;6.686;2023-11-21T10:00:23;8.90;99.90
54684;DHT22;40582;53.100;6.686;2023-11-21T10:02:50;8.90;99.90
54684;DHT22;40582;53.100;6.686;2023-11-21T10:05:18;9.00;99.90
54684;DHT22;40582;53.100;6.686;2023-11-21T10:07:49;9.00;99.90
54684;DHT22;40582;53.100;6.686;2023-11-21T10:10:20;9.00;99.90
54684;DHT22;40582;53.100;6.686;2023-11-21T10:12:49;9.00;99.90
54684;DHT22;40582;53.100;6.686;2023-11-21T10:15:21;9.10;99.90
54684;DHT22;40582;53.100;6.686;2023-11-21T10:17:49;9.10;99.90
54684;DHT22;40582;53.100;6.686;2023-11-21T10:20:16;9.20;99.90
54684;DHT22;40582;53.100;6.686;2023-11-21T10:22:42;9.30;99.90
54684;DHT22;40582;53.100;6.686;2023-11-21T10:25:14;9.50;99.90
54684;DHT22;40582;53.100;6.686;2023-11-21T10:27:40;9.40;99.90
54684;DHT22;40582;53.100;6.686;2023-11-21T10:30:08;9.50;99.90
54684;DHT22;40582;53.100;6.686;2023-11-21T10:32:38;9.50;99.90
54684;DHT22;40582;53.100;6.686;2023-11-21T10:35:06;9.40;99.90
54684;DHT22;40582;53.100;6.686;2023-11-21T10:37:44;9.30;99.90
54684;DHT22;40582;53.100;6.686;2023-11-21T10:40:27;9.20;99.90
54684;DHT22;40582;53.100;6.686;2023-11-21T10:42:54;9.20;99.90
54684;DHT22;40582;53.100;6.686;2023-11-21T10:45:23;9.30;99.90
54684;DHT22;40582;53.100;6.686;2023-11-21T10:47:51;9.20;99.90
54684;DHT22;40582;53.100;6.686;2023-11-21T10:50:18;9.10;99.90
54684;DHT22;40582;53.100;6.686;2023-11-21T10:52:45;9.10;99.90
54684;DHT22;40582;53.100;6.686;2023-11-21T10:55:20;9.20;99.90
54684;DHT22;40582;53.100;6.686;2023-11-21T10:57:54;9.30;99.90
54684;DHT22;40582;53.100;6.686;2023-11-21T11:00:22;9.30;99.90
54684;DHT22;40582;53.100;6.686;2023-11-21T11:02:52;9.40;99.90
54684;DHT22;40582;53.100;6.686;2023-11-21T11:05:24;9.40;99.90
54684;DHT22;40582;53.100;6.686;2023-11-21T11:08:04;9.50;99.90
54684;DHT22;40582;53.100;6.686;2023-11-21T11:10:30;9.60;99.90
54684;DHT22;40582;53.100;6.686;2023-11-21T11:12:57;9.70;99.90
54684;DHT22;40582;53.100;6.686;2023-11-21T11:15:24;9.60;99.90
54684;DHT22;40582;53.100;6.686;2023-11-21T11:17:50;9.60;99.90
54684;DHT22;40582;53.100;6.686;2023-11-21T11:20:17;9.50;99.90
54684;DHT22;40582;53.100;6.686;2023-11-21T11:34:30;9.30;99.90
54684;DHT22;40582;53.100;6.686;2023-11-21T11:37:03;9.40;99.90
54684;DHT22;40582;53.100;6.686;2023-11-21T11:39:38;9.40;99.90
54684;DHT22;40582;53.100;6.686;2023-11-21T11:42:07;9.40;99.90
54684;DHT22;40582;53.100;6.686;2023-11-21T11:47:26;9.40;99.90
54684;DHT22;40582;53.100;6.686;2023-11-21T11:50:02;9.30;99.90
54684;DHT22;40582;53.100;6.686;2023-11-21T11:52:45;9.30;99.90
54684;DHT22;40582;53.100;6.686;2023-11-21T11:55:13;9.30;99.90
54684;DHT22;40582;53.100;6.686;2023-11-21T11:57:40;9.00;99.90
54684;DHT22;40582;53.100;6.686;2023-11-21T12:00:22;9.40;99.90
54684;DHT22;40582;53.100;6.686;2023-11-21T12:03:01;9.40;99.90
54684;DHT22;40582;53.100;6.686;2023-11-21T12:05:33;9.30;99.90
54684;DHT22;40582;53.100;6.686;2023-11-21T12:08:02;9.20;99.90
54684;DHT22;40582;53.100;6.686;2023-11-21T12:10:30;9.10;99.90
54684;DHT22;40582;53.100;6.686;2023-11-21T12:13:01;9.10;99.90
54684;DHT22;40582;53.100;6.686;2023-11-21T12:15:27;9.00;99.90
54684;DHT22;40582;53.100;6.686;2023-11-21T12:17:57;8.90;99.90
54684;DHT22;40582;53.100;6.686;2023-11-21T12:20:24;8.90;99.90
54684;DHT22;40582;53.100;6.686;2023-11-21T12:22:52;8.90;99.90
54684;DHT22;40582;53.100;6.686;2023-11-21T12:25:19;8.80;99.90
54684;DHT22;40582;53.100;6.686;2023-11-21T12:27:50;8.90;99.90
54684;DHT22;40582;53.100;6.686;2023-11-21T12:30:24;8.90;99.90
54684;DHT22;40582;53.100;6.686;2023-11-21T12:33:01;8.80;99.90
54684;DHT22;40582;53.100;6.686;2023-11-21T12:35:29;8.80;99.90
54684;DHT22;40582;53.100;6.686;2023-11-21T12:37:56;8.70;99.90
54684;DHT22;40582;53.100;6.686;2023-11-21T12:40:25;8.70;99.90
54684;DHT22;40582;53.100;6.686;2023-11-21T12:42:58;8.60;99.90
54684;DHT22;40582;53.100;6.686;2023-11-21T12:45:27;8.50;99.90
54684;DHT22;40582;53.100;6.686;2023-11-21T12:48:01;8.50;99.90
54684;DHT22;40582;53.100;6.686;2023-11-21T12:50:30;8.50;99.90
54684;DHT22;40582;53.100;6.686;2023-11-21T12:53:19;8.60;99.90
54684;DHT22;40582;53.100;6.686;2023-11-21T12:55:45;8.70;99.90
54684;DHT22;40582;53.100;6.686;2023-11-21T12:58:15;8.70;99.90
54684;DHT22;40582;53.100;6.686;2023-11-21T13:00:48;8.80;99.90
54684;DHT22;40582;53.100;6.686;2023-11-21T13:03:16;8.90;99.90
54684;DHT22;40582;53.100;6.686;2023-11-21T13:05:44;9.10;99.90
54684;DHT22;40582;53.100;6.686;2023-11-21T13:08:11;9.20;99.90
54684;DHT22;40582;53.100;6.686;2023-11-21T13:10:43;9.30;99.90
54684;DHT22;40582;53.100;6.686;2023-11-21T13:13:11;9.40;99.90
54684;DHT22;40582;53.100;6.686;2023-11-21T13:15:48;9.40;99.90
54684;DHT22;40582;53.100;6.686;2023-11-21T13:18:14;9.50;99.90
54684;DHT22;40582;53.100;6.686;2023-11-21T13:20:41;9.60;99.90
54684;DHT22;40582;53.100;6.686;2023-11-21T13:23:09;9.60;99.90
54684;DHT22;40582;53.100;6.686;2023-11-21T13:25:38;9.60;99.90
54684;DHT22;40582;53.100;6.686;2023-11-21T13:28:06;9.50;99.90
54684;DHT22;40582;53.100;6.686;2023-11-21T13:30:38;9.40;99.90
54684;DHT22;40582;53.100;6.686;2023-11-21T13:33:06;9.40;99.90
54684;DHT22;40582;53.100;6.686;2023-11-21T13:35:37;9.30;99.90
54684;DHT22;40582;53.100;6.686;2023-11-21T13:38:09;9.20;99.90
54684;DHT22;40582;53.100;6.686;2023-11-21T13:40:36;9.20;99.90
54684;DHT22;40582;53.100;6.686;2023-11-21T13:43:12;9.10;99.90
54684;DHT22;40582;53.100;6.686;2023-11-21T13:45:43;9.00;99.90
54684;DHT22;40582;53.100;6.686;2023-11-21T13:48:10;9.00;99.90
54684;DHT22;40582;53.100;6.686;2023-11-21T13:50:45;8.90;99.90
54684;DHT22;40582;53.100;6.686;2023-11-21T13:53:21;8.90;99.90
54684;DHT22;40582;53.100;6.686;2023-11-21T13:55:51;8.80;99.90
54684;DHT22;40582;53.100;6.686;2023-11-21T13:58:20;8.80;99.90
54684;DHT22;40582;53.100;6.686;2023-11-21T14:00:50;8.90;99.90
54684;DHT22;40582;53.100;6.686;2023-11-21T14:03:25;8.90;99.90
54684;DHT22;40582;53.100;6.686;2023-11-21T14:06:03;8.90;99.90
54684;DHT22;40582;53.100;6.686;2023-11-21T14:08:39;8.90;99.90
54684;DHT22;40582;53.100;6.686;2023-11-21T14:11:05;8.90;99.90
54684;DHT22;40582;53.100;6.686;2023-11-21T14:13:32;8.80;99.90
54684;DHT22;40582;53.100;6.686;2023-11-21T14:15:59;8.80;99.90
54684;DHT22;40582;53.100;6.686;2023-11-21T14:18:28;8.80;99.90
54684;DHT22;40582;53.100;6.686;2023-11-21T14:21:04;8.60;99.90
54684;DHT22;40582;53.100;6.686;2023-11-21T14:23:31;8.60;99.90
54684;DHT22;40582;53.100;6.686;2023-11-21T14:25:58;8.60;99.90
54684;DHT22;40582;53.100;6.686;2023-11-21T14:28:26;8.50;99.90
54684;DHT22;40582;53.100;6.686;2023-11-21T14:30:52;8.50;99.90
54684;DHT22;40582;53.100;6.686;2023-11-21T14:33:18;8.50;99.90
54684;DHT22;40582;53.100;6.686;2023-11-21T14:35:43;8.50;99.90
54684;DHT22;40582;53.100;6.686;2023-11-21T14:38:10;8.40;99.90
54684;DHT22;40582;53.100;6.686;2023-11-21T14:40:36;8.40;99.90
54684;DHT22;40582;53.100;6.686;2023-11-21T14:43:03;8.40;99.90
54684;DHT22;40582;53.100;6.686;2023-11-21T14:45:32;8.40;99.90
54684;DHT22;40582;53.100;6.686;2023-11-21T14:47:58;8.40;99.90
54684;DHT22;40582;53.100;6.686;2023-11-21T14:50:30;8.30;99.90
54684;DHT22;40582;53.100;6.686;2023-11-21T14:53:15;8.30;99.90
54684;DHT22;40582;53.100;6.686;2023-11-21T14:55:41;8.30;99.90
54684;DHT22;40582;53.100;6.686;2023-11-21T14:58:22;8.30;99.90
54684;DHT22;40582;53.100;6.686;2023-11-21T15:00:55;8.30;99.90
54684;DHT22;40582;53.100;6.686;2023-11-21T15:03:25;8.20;99.90
54684;DHT22;40582;53.100;6.686;2023-11-21T15:06:00;8.20;99.90
54684;DHT22;40582;53.100;6.686;2023-11-21T15:08:44;8.10;99.90
54684;DHT22;40582;53.100;6.686;2023-11-21T15:11:11;8.10;99.90
54684;DHT22;40582;53.100;6.686;2023-11-21T15:13:41;8.10;99.90
54684;DHT22;40582;53.100;6.686;2023-11-21T15:16:08;8.00;99.90
54684;DHT22;40582;53.100;6.686;2023-11-21T15:18:37;8.00;99.90
54684;DHT22;40582;53.100;6.686;2023-11-21T15:21:03;8.00;99.90
54684;DHT22;40582;53.100;6.686;2023-11-21T15:23:29;8.00;99.90
54684;DHT22;40582;53.100;6.686;2023-11-21T15:25:57;8.00;99.90
54684;DHT22;40582;53.100;6.686;2023-11-21T15:28:23;7.90;99.90
54684;DHT22;40582;53.100;6.686;2023-11-21T15:30:50;7.90;99.90
54684;DHT22;40582;53.100;6.686;2023-11-21T15:33:17;7.80;99.90
54684;DHT22;40582;53.100;6.686;2023-11-21T15:35:43;7.80;99.90
54684;DHT22;40582;53.100;6.686;2023-11-21T15:38:09;7.70;99.90
54684;DHT22;40582;53.100;6.686;2023-11-21T15:40:34;7.70;99.90
54684;DHT22;40582;53.100;6.686;2023-11-21T15:43:00;7.60;99.90
54684;DHT22;40582;53.100;6.686;2023-11-21T15:45:29;7.60;99.90
54684;DHT22;40582;53.100;6.686;2023-11-21T15:47:54;7.50;99.90
54684;DHT22;40582;53.100;6.686;2023-11-21T15:50:22;7.40;99.90
54684;DHT22;40582;53.100;6.686;2023-11-21T15:52:48;7.30;99.90
54684;DHT22;40582;53.100;6.686;2023-11-21T15:55:13;7.20;99.90
54684;DHT22;40582;53.100;6.686;2023-11-21T15:57:39;7.10;99.90
54684;DHT22;40582;53.100;6.686;2023-11-21T16:00:05;7.10;99.90
54684;DHT22;40582;53.100;6.686;2023-11-21T16:02:42;7.00;99.90
54684;DHT22;40582;53.100;6.686;2023-11-21T16:05:09;6.90;99.90
54684;DHT22;40582;53.100;6.686;2023-11-21T16:07:34;6.80;99.90
54684;DHT22;40582;53.100;6.686;2023-11-21T16:10:02;6.70;99.90
54684;DHT22;40582;53.100;6.686;2023-11-21T16:12:27;6.60;99.90